Time;durP1;ratioP1;P1;durP2;ratioP2;P2;SDS_P1;SDS_P2;PMS_P1;PMS_P2;Temp;Humidity;BMP_temperature;BMP_pressure;BME280_temperature;BME280_humidity;BME280_pressure;Samples;Min_cycle;Max_cycle;Signal;HPM_P1;HPM_P2
2021/01/03 00:01:56;;;;;;;76.67;29.57;;;-1.40;99.90;;;;;;4991810;28;20031;-77
2021/01/03 00:04:22;;;;;;;74.20;29.87;;;-1.40;99.90;;;;;;4991766;28;20512;-77
2021/01/03 00:06:54;;;;;;;76.73;29.43;;;-1.40;99.90;;;;;;4991648;28;20030;-77
2021/01/03 00:09:21;;;;;;;75.20;30.20;;;-1.40;99.90;;;;;;4974248;28;20019;-77
2021/01/03 00:11:47;;;;;;;73.47;28.93;;;-1.30;99.90;;;;;;4991743;28;20037;-77
2021/01/03 00:14:13;;;;;;;76.23;31.43;;;-1.30;99.90;;;;;;4991283;28;20023;-78
2021/01/03 00:16:39;;;;;;;79.90;30.00;;;-1.30;99.90;;;;;;4991361;28;20030;-77
2021/01/03 00:19:05;;;;;;;69.13;29.67;;;-1.40;99.90;;;;;;4988968;28;20022;-78
2021/01/03 00:21:31;;;;;;;72.40;29.27;;;-1.40;99.90;;;;;;4987792;28;20023;-78
2021/01/03 00:23:57;;;;;;;69.07;30.77;;;-1.40;99.90;;;;;;4971792;28;20057;-77
2021/01/03 00:26:23;;;;;;;73.53;29.53;;;-1.40;99.90;;;;;;4971748;28;20031;-78
2021/01/03 00:28:49;;;;;;;73.57;31.07;;;-1.30;99.90;;;;;;4954021;28;20023;-78
2021/01/03 00:31:15;;;;;;;78.30;32.00;;;-1.30;99.90;;;;;;4971823;28;20054;-78
2021/01/03 00:33:40;;;;;;;77.87;30.93;;;-1.30;99.90;;;;;;4971977;28;20027;-77
2021/01/03 00:36:07;;;;;;;76.87;29.63;;;-1.30;99.90;;;;;;4980802;28;20133;-78
2021/01/03 00:38:33;;;;;;;77.03;29.93;;;-1.30;99.90;;;;;;4991033;28;20041;-78
2021/01/03 00:40:58;;;;;;;73.97;29.00;;;-1.30;99.90;;;;;;4990897;28;20033;-77
2021/01/03 00:43:25;;;;;;;71.80;30.67;;;-1.40;99.90;;;;;;4990493;28;20034;-78
2021/01/03 00:45:51;;;;;;;76.70;30.67;;;-1.40;99.90;;;;;;4990336;28;20043;-78
2021/01/03 00:48:17;;;;;;;73.60;29.07;;;-1.30;99.90;;;;;;4991553;28;20052;-78
2021/01/03 00:50:42;;;;;;;67.83;28.20;;;-1.30;99.90;;;;;;4990772;28;20022;-78
2021/01/03 00:53:08;;;;;;;69.07;27.97;;;-1.30;99.90;;;;;;4989504;28;20030;-78
2021/01/03 00:55:33;;;;;;;78.00;31.30;;;-1.20;99.90;;;;;;4990920;28;20034;-78
2021/01/03 00:57:59;;;;;;;69.00;28.93;;;-1.30;99.90;;;;;;4991032;28;20062;-78
2021/01/03 01:00:29;;;;;;;70.97;28.77;;;-1.30;99.90;;;;;;4991023;28;20026;-78
2021/01/03 01:02:55;;;;;;;68.53;27.87;;;-1.30;99.90;;;;;;4990672;28;20033;-78
2021/01/03 01:05:21;;;;;;;74.97;29.07;;;-1.20;99.90;;;;;;4973178;28;20034;-78
2021/01/03 01:07:47;;;;;;;72.07;28.20;;;-1.20;99.90;;;;;;4990553;28;20499;-78
2021/01/03 01:10:18;;;;;;;75.13;29.87;;;-1.20;99.90;;;;;;4991029;28;20084;-78
2021/01/03 01:12:44;;;;;;;76.20;30.83;;;-1.20;99.90;;;;;;4990665;28;20018;-78
2021/01/03 01:15:17;;;;;;;76.37;29.37;;;-1.20;99.90;;;;;;4990656;28;20023;-78
2021/01/03 01:17:44;;;;;;;78.77;29.87;;;-1.20;99.90;;;;;;4990201;28;20535;-78
2021/01/03 01:20:10;;;;;;;76.97;30.80;;;-1.20;99.90;;;;;;4990376;28;20026;-78
2021/01/03 01:22:36;;;;;;;71.47;28.97;;;-1.20;99.90;;;;;;4989691;28;20092;-78
2021/01/03 01:25:01;;;;;;;71.00;29.67;;;-1.20;99.90;;;;;;4983084;28;20030;-78
2021/01/03 01:27:27;;;;;;;75.33;30.07;;;-1.30;99.90;;;;;;4970791;28;20037;-78
2021/01/03 01:29:52;;;;;;;80.37;30.10;;;-1.20;99.90;;;;;;4971097;28;20023;-78
2021/01/03 01:32:18;;;;;;;83.50;31.03;;;-1.20;99.90;;;;;;4970975;28;20336;-78
2021/01/03 01:34:43;;;;;;;79.30;31.13;;;-1.20;99.90;;;;;;4969773;28;20030;-78
2021/01/03 01:37:09;;;;;;;89.83;32.30;;;-1.10;99.90;;;;;;4970977;28;20031;-78
2021/01/03 01:39:35;;;;;;;84.10;30.80;;;-1.10;99.90;;;;;;4971000;28;20038;-78
2021/01/03 01:42:01;;;;;;;82.77;31.03;;;-1.10;99.90;;;;;;4982136;28;20429;-78
2021/01/03 01:44:26;;;;;;;81.20;29.97;;;-1.20;99.90;;;;;;4990178;28;20463;-78
2021/01/03 01:47:01;;;;;;;83.37;32.07;;;-1.20;99.90;;;;;;4990498;28;20030;-78
2021/01/03 01:49:27;;;;;;;89.25;31.13;;;-1.10;99.90;;;;;;4972306;28;20031;-78
2021/01/03 01:51:54;;;;;;;77.43;30.03;;;-1.10;99.90;;;;;;4989327;28;20086;-78
2021/01/03 01:54:33;;;;;;;81.37;31.33;;;-1.10;99.90;;;;;;4989642;28;20022;-78
2021/01/03 01:57:03;;;;;;;89.23;31.37;;;-1.10;99.90;;;;;;4989675;28;20431;-78
2021/01/03 02:00:05;;;;;;;90.83;33.37;;;-1.10;99.90;;;;;;4987737;28;20038;-78
2021/01/03 02:02:36;;;;;;;93.50;31.93;;;-1.10;99.90;;;;;;4982877;28;20050;-78
2021/01/03 02:05:23;;;;;;;89.67;31.57;;;-1.10;99.90;;;;;;4988600;28;20063;-78
2021/01/03 02:07:53;;;;;;;77.70;30.53;;;-1.10;99.90;;;;;;4990042;28;20072;-79
2021/01/03 02:10:27;;;;;;;88.27;31.33;;;-1.10;99.90;;;;;;4989935;28;20076;-78
2021/01/03 02:13:09;;;;;;;87.37;32.10;;;-1.10;99.90;;;;;;4988819;28;20446;-78
2021/01/03 02:15:35;;;;;;;82.83;29.60;;;-1.00;99.90;;;;;;4989765;28;20494;-78
2021/01/03 02:18:05;;;;;;;83.63;31.77;;;-1.00;99.90;;;;;;4989999;28;20034;-78
2021/01/03 02:20:45;;;;;;;91.37;29.43;;;-1.10;99.90;;;;;;4989748;28;20409;-78
2021/01/03 02:23:12;;;;;;;79.73;29.50;;;-1.10;99.90;;;;;;4989655;28;20031;-78
2021/01/03 02:25:38;;;;;;;90.27;30.93;;;-1.00;99.90;;;;;;4989368;28;20449;-77
2021/01/03 02:28:18;;;;;;;84.03;28.50;;;-1.00;99.90;;;;;;4972256;28;20087;-78
2021/01/03 02:30:47;;;;;;;97.80;33.23;;;-1.10;99.90;;;;;;4981292;28;20033;-83
2021/01/03 02:33:22;;;;;;;83.17;30.43;;;-1.20;99.90;;;;;;4970208;28;20360;-83
2021/01/03 02:35:50;;;;;;;62.85;23.85;;;-1.10;99.90;;;;;;4970216;28;20101;-83
2021/01/03 02:38:24;;;;;;;87.53;31.43;;;-1.10;99.90;;;;;;4969027;28;20035;-83
2021/01/03 02:40:50;;;;;;;90.83;30.50;;;-1.10;99.90;;;;;;4970322;28;20034;-83
2021/01/03 02:43:15;;;;;;;90.03;31.80;;;-1.10;99.90;;;;;;4982845;28;20485;-83
2021/01/03 02:45:41;;;;;;;93.47;31.20;;;-1.10;99.90;;;;;;4989156;28;20093;-83
2021/01/03 02:48:14;;;;;;;88.67;34.27;;;-1.10;99.90;;;;;;4989426;28;20057;-83
2021/01/03 02:50:40;;;;;;;89.53;31.93;;;-1.10;99.90;;;;;;4979104;28;20054;-83
2021/01/03 02:53:06;;;;;;;88.87;30.83;;;-1.10;99.90;;;;;;4971257;28;20066;-83
2021/01/03 02:55:31;;;;;;;87.70;31.80;;;-1.10;99.90;;;;;;4972267;28;20125;-83
2021/01/03 02:57:57;;;;;;;91.63;32.57;;;-1.00;99.90;;;;;;4964097;28;20093;-83
2021/01/03 03:00:27;;;;;;;83.67;30.17;;;-1.00;99.90;;;;;;4992992;28;20120;-83
2021/01/03 03:02:53;;;;;;;88.27;31.23;;;-1.00;99.90;;;;;;4992930;28;20105;-83
2021/01/03 03:05:20;;;;;;;81.47;31.33;;;-1.10;99.90;;;;;;4992826;28;20105;-83
2021/01/03 03:07:45;;;;;;;79.83;31.00;;;-1.00;99.90;;;;;;4962248;28;20033;-83
2021/01/03 03:10:12;;;;;;;84.93;30.03;;;-1.00;99.90;;;;;;4973594;28;20023;-83
2021/01/03 03:12:37;;;;;;;86.33;31.13;;;-1.00;99.90;;;;;;4973398;28;20122;-83
2021/01/03 03:15:09;;;;;;;85.43;31.53;;;-1.00;99.90;;;;;;4973484;28;20409;-83
2021/01/03 03:17:35;;;;;;;85.40;31.90;;;-1.00;99.90;;;;;;4984415;28;20363;-83
2021/01/03 03:20:01;;;;;;;84.53;30.53;;;-1.00;99.90;;;;;;4992601;28;20046;-83
2021/01/03 03:22:26;;;;;;;81.30;31.73;;;-1.00;99.90;;;;;;4992769;28;20050;-83
2021/01/03 03:24:52;;;;;;;85.13;31.47;;;-1.00;99.90;;;;;;4992409;28;20447;-83
2021/01/03 03:27:17;;;;;;;78.03;31.07;;;-1.00;99.90;;;;;;4983660;28;20038;-83
2021/01/03 03:29:43;;;;;;;76.73;29.30;;;-1.00;99.90;;;;;;4954478;28;20047;-83
2021/01/03 03:32:08;;;;;;;78.47;29.00;;;-1.00;99.90;;;;;;4971819;28;20031;-83
2021/01/03 03:34:34;;;;;;;71.30;28.20;;;-0.90;99.90;;;;;;4972722;28;20035;-83
2021/01/03 03:37:00;;;;;;;76.80;30.63;;;-1.00;99.90;;;;;;4979219;28;20469;-83
2021/01/03 03:39:27;;;;;;;77.30;28.43;;;-0.90;99.90;;;;;;4974784;28;20745;-84
2021/01/03 03:41:57;;;;;;;71.77;27.23;;;-0.90;99.90;;;;;;4992149;28;20084;-84
2021/01/03 03:44:24;;;;;;;72.43;26.40;;;-0.90;99.90;;;;;;4991620;28;20071;-83
2021/01/03 03:46:51;;;;;;;70.27;26.53;;;-0.90;99.90;;;;;;4973341;28;20471;-84
2021/01/03 03:49:17;;;;;;;71.03;26.57;;;-0.90;99.90;;;;;;4972463;28;20368;-83
2021/01/03 03:51:43;;;;;;;65.60;27.03;;;-0.90;99.90;;;;;;4972877;28;20112;-83
2021/01/03 03:54:08;;;;;;;67.93;26.43;;;-0.90;99.90;;;;;;4981911;28;20038;-83
2021/01/03 03:56:34;;;;;;;65.17;26.20;;;-0.90;99.90;;;;;;4974447;28;20068;-83
2021/01/03 03:58:59;;;;;;;67.17;27.43;;;-0.90;99.90;;;;;;4991511;28;20471;-83
2021/01/03 04:01:25;;;;;;;73.37;25.03;;;-0.90;99.90;;;;;;4991774;28;20519;-83
2021/01/03 04:03:50;;;;;;;67.07;26.77;;;-0.80;99.90;;;;;;4991300;28;20054;-83
2021/01/03 04:06:16;;;;;;;71.70;26.83;;;-0.90;99.90;;;;;;4991717;28;20462;-83
2021/01/03 04:08:42;;;;;;;72.37;26.77;;;-0.90;99.90;;;;;;4991704;28;20054;-83
2021/01/03 04:11:07;;;;;;;68.90;27.40;;;-0.90;99.90;;;;;;4974395;28;20031;-83
2021/01/03 04:13:33;;;;;;;70.57;26.73;;;-1.00;99.90;;;;;;4991413;28;20076;-83
2021/01/03 04:15:58;;;;;;;70.97;25.60;;;-1.00;99.90;;;;;;4991612;28;20084;-83
2021/01/03 04:18:24;;;;;;;72.90;25.37;;;-0.90;99.90;;;;;;4991695;28;20034;-83
2021/01/03 04:20:50;;;;;;;73.40;26.70;;;-0.90;99.90;;;;;;4991316;28;20475;-83
2021/01/03 04:23:15;;;;;;;77.50;28.50;;;-0.90;99.90;;;;;;4989335;28;20041;-83
2021/01/03 04:25:41;;;;;;;73.97;27.43;;;-0.90;99.90;;;;;;4971950;28;20536;-83
2021/01/03 04:28:06;;;;;;;83.27;28.93;;;-1.00;99.90;;;;;;4972383;28;20079;-83
2021/01/03 04:30:32;;;;;;;71.23;26.67;;;-1.00;99.90;;;;;;4972091;28;20027;-83
2021/01/03 04:32:57;;;;;;;72.13;27.47;;;-1.00;99.90;;;;;;4971832;28;20149;-83
2021/01/03 04:35:24;;;;;;;74.93;28.03;;;-1.00;99.90;;;;;;4990726;28;20129;-83
2021/01/03 04:37:55;;;;;;;69.50;26.33;;;-0.90;99.90;;;;;;4991498;28;20026;-83
2021/01/03 04:40:31;;;;;;;71.50;27.20;;;-1.00;99.90;;;;;;4974027;28;20026;-83
2021/01/03 04:43:02;;;;;;;72.10;27.80;;;-0.90;99.90;;;;;;4973392;28;20050;-83
2021/01/03 04:45:34;;;;;;;69.63;27.03;;;-1.00;99.90;;;;;;4991081;28;20127;-83
2021/01/03 04:48:03;;;;;;;76.33;30.70;;;-0.90;99.90;;;;;;4991452;28;20062;-83
2021/01/03 04:50:36;;;;;;;74.80;29.93;;;-0.90;99.90;;;;;;4975635;28;20667;-83
2021/01/03 04:53:29;;;;;;;74.87;28.97;;;-0.90;99.90;;;;;;4991252;28;20455;-83
2021/01/03 04:56:00;;;;;;;64.67;27.87;;;-0.90;99.90;;;;;;4991348;28;20095;-83
2021/01/03 04:58:31;;;;;;;73.27;26.57;;;-0.90;99.90;;;;;;4990749;28;20031;-83
2021/01/03 05:01:38;;;;;;;71.30;28.10;;;-0.90;99.90;;;;;;4980716;28;20395;-83
2021/01/03 05:04:22;;;;;;;70.37;26.47;;;-0.90;99.90;;;;;;4970629;28;20027;-83
2021/01/03 05:06:53;;;;;;;75.03;28.27;;;-0.90;99.90;;;;;;4988855;28;20463;-84
2021/01/03 05:09:18;;;;;;;71.67;28.77;;;-0.90;99.90;;;;;;4990472;28;20091;-83
2021/01/03 05:12:05;;;;;;;69.97;27.63;;;-0.90;99.90;;;;;;4989803;28;20030;-83
2021/01/03 05:14:47;;;;;;;72.93;27.73;;;-0.90;99.90;;;;;;4990188;28;20022;-83
2021/01/03 05:17:12;;;;;;;74.73;27.63;;;-0.90;99.90;;;;;;4989964;28;20458;-83
2021/01/03 05:19:38;;;;;;;74.87;28.00;;;-0.90;99.90;;;;;;4990737;28;20033;-83
2021/01/03 05:22:04;;;;;;;73.57;29.13;;;-0.90;99.90;;;;;;4973570;28;20113;-83
2021/01/03 05:24:40;;;;;;;77.40;28.93;;;-0.90;99.90;;;;;;4971242;28;20038;-83
2021/01/03 05:27:16;;;;;;;68.57;28.47;;;-0.90;99.90;;;;;;4971173;28;20037;-83
2021/01/03 05:29:44;;;;;;;67.63;30.67;;;-0.90;99.90;;;;;;4971174;28;20035;-84
2021/01/03 05:32:10;;;;;;;72.70;30.13;;;-0.90;99.90;;;;;;4953950;28;20035;-84
2021/01/03 05:34:43;;;;;;;69.40;27.80;;;-0.90;99.90;;;;;;4971776;28;20023;-83
2021/01/03 05:37:16;;;;;;;73.00;27.53;;;-0.90;99.90;;;;;;4982834;28;20031;-83
2021/01/03 05:39:43;;;;;;;74.53;30.30;;;-0.90;99.90;;;;;;4985133;28;20023;-83
2021/01/03 05:42:20;;;;;;;72.73;31.43;;;-0.90;99.90;;;;;;4993238;28;20056;-83
2021/01/03 05:45:06;;;;;;;81.07;30.80;;;-0.80;99.90;;;;;;4989281;28;20129;-83
2021/01/03 05:47:58;;;;;;;77.17;29.87;;;-0.80;99.90;;;;;;4989354;28;20133;-83
2021/01/03 05:50:24;;;;;;;76.93;30.57;;;-0.80;99.90;;;;;;4986690;28;20068;-83
2021/01/03 05:52:51;;;;;;;77.93;29.80;;;-0.80;99.90;;;;;;4969735;28;20027;-83
2021/01/03 05:55:26;;;;;;;76.03;30.37;;;-0.80;99.90;;;;;;4970053;28;20025;-83
2021/01/03 05:58:10;;;;;;;81.95;30.52;;;-0.80;99.90;;;;;;4968504;28;20384;-82
2021/01/03 06:00:37;;;;;;;78.43;29.47;;;-0.80;99.90;;;;;;4970452;28;20026;-83
2021/01/03 06:03:14;;;;;;;82.33;30.53;;;-0.80;99.90;;;;;;4970792;28;20050;-83
2021/01/03 06:05:45;;;;;;;79.10;30.13;;;-0.90;99.90;;;;;;4970512;28;20106;-83
2021/01/03 06:08:33;;;;;;;75.43;30.43;;;-0.80;99.90;;;;;;4970921;28;20051;-83
2021/01/03 06:11:11;;;;;;;74.27;30.07;;;-0.80;99.90;;;;;;4970477;28;20027;-83
2021/01/03 06:13:48;;;;;;;73.80;29.43;;;-0.80;99.90;;;;;;4970456;28;20015;-83
2021/01/03 06:16:16;;;;;;;71.97;29.93;;;-0.80;99.90;;;;;;4970083;28;20034;-83
2021/01/03 06:18:50;;;;;;;71.93;28.63;;;-0.80;99.90;;;;;;4970405;28;20034;-87
2021/01/03 06:21:30;;;;;;;72.80;30.30;;;-0.90;99.90;;;;;;4980640;28;20030;-86
2021/01/03 06:24:13;;;;;;;73.53;28.30;;;-0.80;99.90;;;;;;4990778;28;20030;-87
2021/01/03 06:26:44;;;;;;;67.10;28.27;;;-0.90;99.90;;;;;;4990158;28;20044;-87
2021/01/03 06:29:20;;;;;;;61.93;28.37;;;-0.80;99.90;;;;;;4979915;28;20083;-87
2021/01/03 06:31:48;;;;;;;68.93;28.00;;;-0.80;99.90;;;;;;4990993;28;20113;-87
2021/01/03 06:34:21;;;;;;;64.73;27.40;;;-0.80;99.90;;;;;;4990451;28;20014;-87
2021/01/03 06:37:05;;;;;;;64.83;28.23;;;-0.80;99.90;;;;;;4990046;28;20332;-87
2021/01/03 06:39:51;;;;;;;67.30;28.40;;;-0.80;99.90;;;;;;4987837;28;20062;-87
2021/01/03 06:42:37;;;;;;;60.50;28.27;;;-0.80;99.90;;;;;;4975497;28;20018;-87
2021/01/03 06:45:36;;;;;;;64.67;26.23;;;-0.80;99.90;;;;;;4970632;28;20104;-87
2021/01/03 06:48:32;;;;;;;65.63;27.40;;;-0.80;99.90;;;;;;4973899;28;20023;-87
2021/01/03 06:51:13;;;;;;;56.08;27.08;;;-0.80;99.90;;;;;;4971097;28;20027;-87
2021/01/03 06:54:09;;;;;;;59.30;25.43;;;-0.70;99.90;;;;;;4972744;28;20309;-87
2021/01/03 06:56:58;;;;;;;66.82;27.63;;;-0.70;99.90;;;;;;5021843;28;20037;-87
2021/01/03 06:59:49;;;;;;;67.70;27.90;;;-0.70;99.90;;;;;;4990316;28;20075;-87
2021/01/03 07:02:17;;;;;;;59.40;26.67;;;-0.70;99.90;;;;;;4990365;28;20057;-87
2021/01/03 07:04:43;;;;;;;60.63;27.47;;;-0.80;99.90;;;;;;4990156;28;20117;-87
2021/01/03 07:07:17;;;;;;;59.43;27.27;;;-0.70;99.90;;;;;;4990280;28;20102;-87
2021/01/03 07:10:01;;;;;;;60.50;28.07;;;-0.70;99.90;;;;;;4990168;28;20054;-87
2021/01/03 07:12:42;;;;;;;66.10;27.87;;;-0.70;99.90;;;;;;4990548;28;20018;-87
2021/01/03 07:15:34;;;;;;;61.90;26.97;;;-0.70;99.90;;;;;;4990099;28;20026;-87
2021/01/03 07:18:19;;;;;;;59.17;25.17;;;-0.70;99.90;;;;;;4984519;28;20884;-88
2021/01/03 07:21:03;;;;;;;45.75;21.00;;;-0.70;99.90;;;;;;4990102;28;20484;-87
2021/01/03 07:23:38;;;;;;;65.70;26.40;;;-0.70;99.90;;;;;;4990214;28;20080;-87
2021/01/03 07:26:11;;;;;;;47.60;21.05;;;-0.70;99.90;;;;;;4989914;28;20039;-87
2021/01/03 07:28:37;;;;;;;57.50;25.83;;;-0.70;99.90;;;;;;4989786;28;20106;-87
2021/01/03 07:31:22;;;;;;;56.60;26.23;;;-0.70;99.90;;;;;;4990194;28;20065;-87
2021/01/03 07:34:27;;;;;;;56.50;25.53;;;-0.60;99.90;;;;;;4990159;28;20083;-87
2021/01/03 07:37:13;;;;;;;54.43;25.07;;;-0.70;99.90;;;;;;4989616;28;20038;-87
2021/01/03 07:40:06;;;;;;;60.73;25.17;;;-0.70;99.90;;;;;;4974221;28;20026;-87
2021/01/03 07:42:35;;;;;;;52.10;24.90;;;-0.70;99.90;;;;;;4993242;28;20034;-87
2021/01/03 07:45:16;;;;;;;60.43;26.43;;;-0.70;99.90;;;;;;4993281;28;20049;-86
2021/01/03 07:48:02;;;;;;;57.57;25.33;;;-0.70;99.90;;;;;;4993002;28;20077;-88
2021/01/03 07:50:30;;;;;;;60.80;25.90;;;-0.60;99.90;;;;;;4992816;28;20039;-86
2021/01/03 07:52:57;;;;;;;53.07;24.93;;;-0.60;99.90;;;;;;4993212;28;20468;-87
2021/01/03 07:55:23;;;;;;;58.37;25.63;;;-0.60;99.90;;;;;;4993555;28;20030;-87
2021/01/03 07:57:58;;;;;;;56.43;27.43;;;-0.60;99.90;;;;;;4993503;28;20378;-86
2021/01/03 08:00:25;;;;;;;54.35;24.90;;;-0.50;99.90;;;;;;4993392;28;20022;-88
2021/01/03 08:02:56;;;;;;;56.23;26.47;;;-0.50;99.90;;;;;;4987581;28;20030;-78
2021/01/03 08:05:24;;;;;;;51.83;24.73;;;-0.50;99.90;;;;;;4989735;28;20366;-78
2021/01/03 08:07:51;;;;;;;54.30;26.20;;;-0.50;99.90;;;;;;4973925;28;20019;-78
2021/01/03 08:10:17;;;;;;;57.80;27.90;;;-0.50;99.90;;;;;;4975571;28;20027;-87
2021/01/03 08:12:48;;;;;;;55.37;26.73;;;-0.50;99.90;;;;;;4974772;28;20022;-87
2021/01/03 08:15:27;;;;;;;57.33;26.30;;;-0.40;99.90;;;;;;4988351;28;20068;-86
2021/01/03 08:18:03;;;;;;;54.47;26.50;;;-0.40;99.90;;;;;;4972263;28;20019;-87
2021/01/03 08:20:29;;;;;;;53.33;26.23;;;-0.40;99.90;;;;;;4997544;28;20012;-77
2021/01/03 08:23:08;;;;;;;55.83;27.50;;;-0.40;99.90;;;;;;4971406;28;20374;-77
2021/01/03 08:25:33;;;;;;;51.50;24.87;;;-0.30;99.90;;;;;;4984121;28;20033;-77
2021/01/03 08:28:11;;;;;;;55.60;25.40;;;-0.30;99.90;;;;;;4984850;28;20378;-77
2021/01/03 08:30:38;;;;;;;55.57;25.40;;;-0.30;99.90;;;;;;4965795;28;20019;-76
2021/01/03 08:33:15;;;;;;;58.10;27.03;;;-0.30;99.90;;;;;;4976512;28;20406;-76
2021/01/03 08:35:41;;;;;;;50.63;26.27;;;-0.30;99.90;;;;;;5024461;28;20030;-77
2021/01/03 08:38:06;;;;;;;51.50;25.47;;;-0.30;99.90;;;;;;4985218;28;20034;-86
2021/01/03 08:40:39;;;;;;;53.57;26.43;;;-0.30;99.90;;;;;;4988328;28;20119;-78
2021/01/03 08:43:14;;;;;;;52.40;24.33;;;-0.20;99.90;;;;;;4992960;28;20037;-85
2021/01/03 08:45:40;;;;;;;;;;;-0.20;99.90;;;;;;4992136;28;20426;-79
2021/01/03 08:48:10;;;;;;;49.93;21.60;;;-0.30;99.90;;;;;;4984278;28;20377;-85
2021/01/03 08:50:37;;;;;;;59.53;25.63;;;-0.30;99.90;;;;;;5057519;28;20051;-87
2021/01/03 08:53:10;;;;;;;49.63;23.83;;;-0.30;99.90;;;;;;5078190;28;20035;-83
2021/01/03 08:55:38;;;;;;;53.87;26.07;;;-0.30;99.90;;;;;;5045034;28;20121;-80
2021/01/03 08:58:08;;;;;;;50.27;24.93;;;-0.20;99.90;;;;;;4991296;28;20390;-81
2021/01/03 09:00:36;;;;;;;52.67;25.53;;;-0.20;99.90;;;;;;4975681;28;20066;-81
2021/01/03 09:03:05;;;;;;;51.67;25.47;;;-0.20;99.90;;;;;;5034507;28;20034;-80
2021/01/03 09:05:36;;;;;;;55.13;25.73;;;-0.20;99.90;;;;;;5036562;28;20075;-82
2021/01/03 09:08:05;;;;;;;52.13;25.50;;;-0.20;99.90;;;;;;5057044;28;20083;-84
2021/01/03 09:10:33;;;;;;;54.27;24.87;;;-0.20;99.90;;;;;;5021537;28;20030;-80
2021/01/03 09:13:17;;;;;;;57.40;25.80;;;-0.10;99.90;;;;;;4975378;28;20726;-80
2021/01/03 09:15:46;;;;;;;49.13;24.13;;;-0.10;99.90;;;;;;4971567;28;20084;-80
2021/01/03 09:18:12;;;;;;;53.67;25.17;;;0.00;99.90;;;;;;4991057;28;20030;-80
2021/01/03 09:20:46;;;;;;;56.43;25.17;;;0.00;99.90;;;;;;4991309;28;20030;-80
2021/01/03 09:23:19;;;;;;;54.42;25.45;;;0.00;99.90;;;;;;4989249;28;20034;-80
2021/01/03 09:25:52;;;;;;;51.13;25.27;;;0.00;99.90;;;;;;4973649;28;20420;-80
2021/01/03 09:28:28;;;;;;;53.07;24.30;;;0.00;99.90;;;;;;4980314;28;20022;-83
2021/01/03 09:31:17;;;;;;;52.53;25.33;;;0.00;99.90;;;;;;4980460;28;20122;-78
2021/01/03 09:33:55;;;;;;;52.03;24.37;;;0.10;99.90;;;;;;4976417;28;20015;-82
2021/01/03 09:36:44;;;;;;;49.87;24.60;;;0.10;99.90;;;;;;4978157;28;20084;-80
2021/01/03 09:39:42;;;;;;;50.33;23.93;;;0.20;99.90;;;;;;4971589;28;20023;-80
2021/01/03 09:42:38;;;;;;;52.77;24.23;;;0.20;99.90;;;;;;4971307;28;20047;-78
2021/01/03 09:45:26;;;;;;;54.30;24.98;;;0.20;99.90;;;;;;4969318;28;20549;-82
2021/01/03 09:47:53;;;;;;;50.33;24.93;;;0.20;99.90;;;;;;4969290;28;20075;-82
2021/01/03 09:50:24;;;;;;;49.10;23.77;;;0.20;99.90;;;;;;4969129;28;20054;-82
2021/01/03 09:53:12;;;;;;;49.37;23.53;;;0.20;99.90;;;;;;4983745;28;20405;-82
2021/01/03 09:55:51;;;;;;;49.80;24.20;;;0.30;99.90;;;;;;4987838;28;20034;-81
2021/01/03 09:58:17;;;;;;;53.13;25.57;;;0.20;99.90;;;;;;4988452;28;20046;-82
2021/01/03 10:00:45;;;;;;;51.53;23.97;;;0.20;99.90;;;;;;4988590;28;20038;-81
2021/01/03 10:03:33;;;;;;;50.97;23.60;;;0.20;99.90;;;;;;4987987;28;20037;-78
2021/01/03 10:06:16;;;;;;;49.27;23.33;;;0.30;99.90;;;;;;4990842;28;20027;-78
2021/01/03 10:08:43;;;;;;;47.23;23.97;;;0.30;99.90;;;;;;4990276;28;20027;-78
2021/01/03 10:11:10;;;;;;;45.70;22.20;;;0.20;99.90;;;;;;4990260;28;20113;-78
2021/01/03 10:13:36;;;;;;;49.20;24.53;;;0.30;99.90;;;;;;4990294;28;20033;-77
2021/01/03 10:16:20;;;;;;;48.43;24.90;;;0.30;99.90;;;;;;4990593;28;20045;-78
2021/01/03 10:18:45;;;;;;;45.43;23.03;;;0.30;99.90;;;;;;4990453;28;20034;-78
2021/01/03 10:21:33;;;;;;;49.93;23.33;;;0.30;99.90;;;;;;4990633;28;20493;-78
2021/01/03 10:24:21;;;;;;;45.07;22.40;;;0.30;99.90;;;;;;4990562;28;20508;-78
2021/01/03 10:27:05;;;;;;;52.77;23.03;;;0.20;99.90;;;;;;4974799;28;20165;-78
2021/01/03 10:29:32;;;;;;;47.17;22.13;;;0.20;99.90;;;;;;4990200;28;20121;-78
2021/01/03 10:31:58;;;;;;;46.23;23.30;;;0.20;99.90;;;;;;4990100;28;20522;-77
2021/01/03 10:34:25;;;;;;;49.40;23.77;;;0.20;99.90;;;;;;4988792;28;20018;-86
2021/01/03 10:36:57;;;;;;;50.27;24.83;;;0.20;99.90;;;;;;5043320;28;20055;-78
2021/01/03 10:39:24;;;;;;;48.67;23.57;;;0.20;99.90;;;;;;5072867;28;20028;-77
2021/01/03 10:41:50;;;;;;;47.27;22.83;;;0.10;99.90;;;;;;5042248;28;20033;-86
2021/01/03 10:44:16;;;;;;;47.60;23.07;;;0.10;99.90;;;;;;4989539;28;20031;-85
2021/01/03 10:46:42;;;;;;;44.67;22.10;;;0.20;99.90;;;;;;4989977;28;20029;-86
2021/01/03 10:49:09;;;;;;;48.90;24.10;;;0.20;99.90;;;;;;4989516;28;20097;-87
2021/01/03 10:51:43;;;;;;;46.47;22.27;;;0.20;99.90;;;;;;4989880;28;20036;-86
2021/01/03 10:54:13;;;;;;;48.00;22.30;;;0.20;99.90;;;;;;4989838;28;20025;-86
2021/01/03 10:56:38;;;;;;;47.60;23.60;;;0.20;99.90;;;;;;4989762;28;20316;-86
2021/01/03 10:59:05;;;;;;;51.17;23.23;;;0.20;99.90;;;;;;4990044;28;20045;-78
2021/01/03 11:01:31;;;;;;;50.13;23.33;;;0.20;99.90;;;;;;4989979;28;20493;-78
2021/01/03 11:03:57;;;;;;;47.43;22.93;;;0.20;99.90;;;;;;4990065;28;20030;-78
2021/01/03 11:06:22;;;;;;;49.57;25.33;;;0.20;99.90;;;;;;4989971;28;20053;-78
2021/01/03 11:08:48;;;;;;;49.53;23.23;;;0.20;99.90;;;;;;4990005;28;20370;-78
2021/01/03 11:11:20;;;;;;;46.90;23.27;;;0.20;99.90;;;;;;4989985;28;20039;-78
2021/01/03 11:13:46;;;;;;;50.37;24.40;;;0.20;99.90;;;;;;4973270;28;20424;-78
2021/01/03 11:16:11;;;;;;;52.40;24.57;;;0.20;99.90;;;;;;4993224;28;20034;-78
2021/01/03 11:18:37;;;;;;;45.73;23.67;;;0.30;99.90;;;;;;4993402;28;20049;-78
2021/01/03 11:21:03;;;;;;;52.63;23.33;;;0.30;99.90;;;;;;4976017;28;20046;-78
2021/01/03 11:23:28;;;;;;;50.00;23.03;;;0.30;99.90;;;;;;4993257;28;20087;-78
2021/01/03 11:25:55;;;;;;;54.40;24.27;;;0.40;99.90;;;;;;4975685;28;20023;-79
2021/01/03 11:28:21;;;;;;;48.10;24.27;;;0.40;99.90;;;;;;4976078;28;20018;-79
2021/01/03 11:30:47;;;;;;;47.83;22.53;;;0.40;99.90;;;;;;4993251;28;20152;-79
2021/01/03 11:33:12;;;;;;;44.97;22.57;;;0.50;99.90;;;;;;4993347;28;20105;-79
2021/01/03 11:35:38;;;;;;;51.27;24.23;;;0.50;99.90;;;;;;4993421;28;20033;-79
2021/01/03 11:38:03;;;;;;;53.93;25.13;;;0.60;99.90;;;;;;4993246;28;20055;-79
2021/01/03 11:40:29;;;;;;;48.67;23.53;;;0.50;99.90;;;;;;4993028;28;20027;-79
2021/01/03 11:42:57;;;;;;;51.70;24.30;;;0.60;99.90;;;;;;4993032;28;20105;-79
2021/01/03 11:45:22;;;;;;;53.93;25.63;;;0.70;99.90;;;;;;4993063;28;20049;-79
2021/01/03 11:47:49;;;;;;;55.63;25.33;;;0.70;99.90;;;;;;4975437;28;20026;-79
2021/01/03 11:50:18;;;;;;;46.73;23.33;;;0.70;99.90;;;;;;4990252;28;20471;-78
2021/01/03 11:52:44;;;;;;;55.97;23.83;;;0.70;99.90;;;;;;4990525;28;20022;-78
2021/01/03 11:55:13;;;;;;;53.90;26.37;;;0.80;99.90;;;;;;4991384;28;20041;-79
2021/01/03 11:57:39;;;;;;;49.83;22.63;;;0.80;99.90;;;;;;4991888;28;20572;-79
2021/01/03 12:00:07;;;;;;;47.40;24.40;;;0.70;99.90;;;;;;4992399;28;20109;-78
2021/01/03 12:02:32;;;;;;;47.67;22.40;;;0.70;99.90;;;;;;4992427;28;20035;-78
2021/01/03 12:04:58;;;;;;;47.70;22.83;;;0.70;99.90;;;;;;4992212;28;20479;-79
2021/01/03 12:07:23;;;;;;;52.57;23.93;;;0.70;99.90;;;;;;4992031;28;20145;-78
2021/01/03 12:09:49;;;;;;;47.23;23.27;;;0.70;99.90;;;;;;5057853;28;20099;-78
2021/01/03 12:12:19;;;;;;;49.33;23.87;;;0.70;99.90;;;;;;5026832;28;20027;-86
2021/01/03 12:14:45;;;;;;;51.07;23.67;;;0.60;99.90;;;;;;4991143;28;20022;-86
2021/01/03 12:17:16;;;;;;;49.53;23.27;;;0.70;99.90;;;;;;5012390;28;20075;-85
2021/01/03 12:19:43;;;;;;;53.67;24.87;;;0.60;99.90;;;;;;4986543;28;20019;-87
2021/01/03 12:22:09;;;;;;;45.93;23.70;;;0.70;99.90;;;;;;4986692;28;20026;-87
2021/01/03 12:24:34;;;;;;;49.57;22.93;;;0.70;99.90;;;;;;4990760;28;20372;-87
2021/01/03 12:27:02;;;;;;;47.70;23.33;;;0.70;99.90;;;;;;4990337;28;20498;-87
2021/01/03 12:29:28;;;;;;;47.30;22.13;;;0.70;99.90;;;;;;4989614;28;20018;-86
2021/01/03 12:31:57;;;;;;;47.50;22.80;;;0.70;99.90;;;;;;4985659;28;20034;-86
2021/01/03 12:34:25;;;;;;;47.77;23.73;;;0.80;99.90;;;;;;4953107;28;20030;-86
2021/01/03 12:36:52;;;;;;;46.77;23.60;;;0.80;99.90;;;;;;4973283;28;20026;-89
2021/01/03 12:39:19;;;;;;;48.23;23.17;;;0.80;99.90;;;;;;4973627;28;20118;-89
2021/01/03 12:41:45;;;;;;;47.07;22.87;;;0.70;99.90;;;;;;4975100;28;20379;-88
2021/01/03 12:44:11;;;;;;;48.90;23.17;;;0.70;99.90;;;;;;4992414;28;20038;-88
2021/01/03 12:46:39;;;;;;;45.97;23.03;;;0.80;99.90;;;;;;5076529;28;20030;-87
2021/01/03 12:49:06;;;;;;;46.03;22.67;;;0.70;99.90;;;;;;4970317;28;20034;-87
2021/01/03 12:51:32;;;;;;;52.10;23.70;;;0.80;99.90;;;;;;4987181;28;20057;-88